createdAt,value
2019-03-10T00:01:01.861Z,4.67
2019-03-10T00:03:02.731Z,2.80
2019-03-10T00:05:03.974Z,2.50
2019-03-10T00:07:05.113Z,3.30
2019-03-10T00:09:06.033Z,2.93
2019-03-10T00:11:07.288Z,3.37
2019-03-10T00:13:08.460Z,2.80
2019-03-10T00:15:09.312Z,2.50
2019-03-10T00:17:10.153Z,2.77
2019-03-10T00:19:10.983Z,4.23
2019-03-10T00:21:11.829Z,3.57
2019-03-10T00:23:12.668Z,4.60
2019-03-10T00:25:13.500Z,3.63
2019-03-10T00:27:14.345Z,2.77
2019-03-10T00:29:15.189Z,2.70
2019-03-10T00:31:16.057Z,4.97
2019-03-10T00:33:16.892Z,3.80
2019-03-10T00:35:17.733Z,2.50
2019-03-10T00:37:18.577Z,3.20
2019-03-10T00:39:19.432Z,3.90
2019-03-10T00:41:20.520Z,2.70
2019-03-10T00:43:21.368Z,2.73
2019-03-10T00:45:22.204Z,2.47
2019-03-10T00:47:23.056Z,2.53
2019-03-10T00:49:23.901Z,3.00
2019-03-10T00:51:24.981Z,3.83
2019-03-10T00:53:25.842Z,2.57
2019-03-10T00:55:26.673Z,2.90
2019-03-10T00:57:27.505Z,3.73
2019-03-10T00:59:28.364Z,2.27
2019-03-10T01:01:29.534Z,3.03
2019-03-10T01:03:30.380Z,2.70
2019-03-10T01:05:31.233Z,2.50
2019-03-10T01:07:32.053Z,3.27
2019-03-10T01:09:32.901Z,3.70
2019-03-10T01:11:34.013Z,3.20
2019-03-10T01:13:34.849Z,2.90
2019-03-10T01:15:35.697Z,3.53
2019-03-10T01:17:36.546Z,4.07
2019-03-10T01:19:37.368Z,3.43
2019-03-10T01:21:38.195Z,3.97
2019-03-10T01:23:39.140Z,4.27
2019-03-10T01:25:39.961Z,3.23
2019-03-10T01:27:40.784Z,3.93
2019-03-10T01:29:41.649Z,3.83
2019-03-10T01:31:42.498Z,2.80
2019-03-10T01:33:43.321Z,3.90
2019-03-10T01:35:44.168Z,4.70
2019-03-10T01:37:44.996Z,3.00
2019-03-10T01:39:45.845Z,2.97
2019-03-10T01:41:46.655Z,2.43
2019-03-10T01:43:47.492Z,3.00
2019-03-10T01:45:48.346Z,2.50
2019-03-10T01:47:49.192Z,3.33
2019-03-10T01:49:50.028Z,2.93
2019-03-10T01:51:50.860Z,2.80
2019-03-10T01:53:51.689Z,3.37
2019-03-10T01:55:52.869Z,2.83
2019-03-10T01:57:53.720Z,3.77
2019-03-10T01:59:54.549Z,2.40
2019-03-10T02:01:55.376Z,3.10
2019-03-10T02:03:56.236Z,3.30
2019-03-10T02:05:57.074Z,2.50
2019-03-10T02:07:57.928Z,3.00
2019-03-10T02:09:58.773Z,3.27
2019-03-10T02:11:59.600Z,3.30
2019-03-10T02:14:00.460Z,4.30
2019-03-10T02:16:01.301Z,4.17
2019-03-10T02:18:02.137Z,3.10
2019-03-10T02:20:02.988Z,2.60
2019-03-10T02:22:03.820Z,3.13
2019-03-10T02:24:04.679Z,3.27
2019-03-10T02:26:05.516Z,3.20
2019-03-10T02:28:06.365Z,3.93
2019-03-10T02:30:07.528Z,4.47
2019-03-10T02:32:08.381Z,2.83
2019-03-10T02:34:09.223Z,3.77
2019-03-10T02:36:10.056Z,2.57
2019-03-10T02:38:10.922Z,2.80
2019-03-10T02:40:11.754Z,5.27
2019-03-10T02:42:12.587Z,4.20
2019-03-10T02:44:13.444Z,4.63
2019-03-10T02:46:14.312Z,3.40
2019-03-10T02:48:15.138Z,2.90
2019-03-10T02:50:16.213Z,3.13
2019-03-10T02:52:17.335Z,4.70
2019-03-10T02:54:18.436Z,2.90
2019-03-10T02:56:19.312Z,3.33
2019-03-10T02:58:20.417Z,2.73
2019-03-10T03:00:21.257Z,3.27
2019-03-10T03:02:22.091Z,3.37
2019-03-10T03:04:22.957Z,3.33
2019-03-10T03:06:23.789Z,2.60
2019-03-10T03:08:24.612Z,4.57
2019-03-10T03:10:25.467Z,2.20
2019-03-10T03:12:26.653Z,4.10
2019-03-10T03:14:27.497Z,4.17
2019-03-10T03:16:28.362Z,2.53
2019-03-10T03:18:29.189Z,2.63
2019-03-10T03:20:30.032Z,2.73
2019-03-10T03:22:31.154Z,2.50
2019-03-10T03:24:31.990Z,3.80
2019-03-10T03:26:33.108Z,2.70
2019-03-10T03:28:33.967Z,2.97
2019-03-10T03:30:34.821Z,2.50
2019-03-10T03:32:35.731Z,3.10
2019-03-10T03:34:36.709Z,3.83
2019-03-10T03:36:37.556Z,2.90
2019-03-10T03:38:38.409Z,3.83
2019-03-10T03:40:39.562Z,2.57
2019-03-10T03:42:40.420Z,4.30
2019-03-10T03:44:41.275Z,2.43
2019-03-10T03:46:42.111Z,3.53
2019-03-10T03:48:43.291Z,2.27
2019-03-10T03:50:44.140Z,2.23
2019-03-10T03:52:44.990Z,2.07
2019-03-10T03:54:45.830Z,2.03
2019-03-10T03:56:46.665Z,2.13
2019-03-10T03:58:47.520Z,2.33
2019-03-10T04:00:51.630Z,1.63
2019-03-10T04:02:52.472Z,1.70
2019-03-10T04:04:53.665Z,4.40
2019-03-10T04:06:54.534Z,3.40
2019-03-10T04:08:55.613Z,5.77
2019-03-10T04:10:56.468Z,3.97
2019-03-10T04:12:57.306Z,4.23
2019-03-10T04:14:58.145Z,3.07
2019-03-10T04:16:58.993Z,2.30
2019-03-10T04:18:59.842Z,2.60
2019-03-10T04:21:00.667Z,2.93
2019-03-10T04:23:01.780Z,2.30
2019-03-10T04:25:02.613Z,2.33
2019-03-10T04:27:03.460Z,2.30
2019-03-10T04:29:04.289Z,3.37
2019-03-10T04:31:05.137Z,2.47
2019-03-10T04:33:05.964Z,2.80
2019-03-10T04:35:06.809Z,2.00
2019-03-10T04:37:07.629Z,2.40
2019-03-10T04:39:08.741Z,2.57
2019-03-10T04:41:09.575Z,2.27
2019-03-10T04:43:10.433Z,2.40
2019-03-10T04:45:11.260Z,2.67
2019-03-10T04:47:12.091Z,2.90
2019-03-10T04:49:12.944Z,3.87
2019-03-10T04:51:13.785Z,3.87
2019-03-10T04:53:14.637Z,2.50
2019-03-10T04:55:23.636Z,3.03
2019-03-10T04:57:24.493Z,2.27
2019-03-10T04:59:25.670Z,1.83
2019-03-10T05:01:26.509Z,2.07
2019-03-10T05:03:27.352Z,2.00
2019-03-10T05:05:28.461Z,2.73
2019-03-10T05:07:29.297Z,2.00
2019-03-10T05:09:30.151Z,2.43
2019-03-10T05:11:30.971Z,2.33
2019-03-10T05:13:31.829Z,2.33
2019-03-10T05:15:32.954Z,2.70
2019-03-10T05:17:33.790Z,2.73
2019-03-10T05:19:34.629Z,3.07
2019-03-10T05:21:35.452Z,2.77
2019-03-10T05:23:36.281Z,2.50
2019-03-10T05:25:37.437Z,3.90
2019-03-10T05:27:38.269Z,2.93
2019-03-10T05:29:39.125Z,4.13
2019-03-10T05:31:39.956Z,3.17
2019-03-10T05:33:40.820Z,3.20
2019-03-10T05:35:41.824Z,2.33
2019-03-10T05:37:42.657Z,2.10
2019-03-10T05:39:43.499Z,2.00
2019-03-10T05:41:44.336Z,3.53
2019-03-10T05:43:45.165Z,2.20
2019-03-10T05:45:46.020Z,2.30
2019-03-10T05:47:46.859Z,2.90
2019-03-10T05:49:47.684Z,3.77
2019-03-10T05:51:48.551Z,2.50
2019-03-10T05:53:49.381Z,3.23
2019-03-10T05:55:50.218Z,4.47
2019-03-10T05:57:51.066Z,4.93
2019-03-10T05:59:51.892Z,3.50
2019-03-10T06:01:52.745Z,3.33
2019-03-10T06:03:53.577Z,2.90
2019-03-10T06:05:54.405Z,2.63
2019-03-10T06:07:55.257Z,3.03
2019-03-10T06:09:56.459Z,4.50
2019-03-10T06:11:57.321Z,2.40
2019-03-10T06:13:58.154Z,2.50
2019-03-10T06:15:59.260Z,3.10
2019-03-10T06:18:00.421Z,2.43
2019-03-10T06:20:01.260Z,2.50
2019-03-10T06:22:02.105Z,2.50
2019-03-10T06:24:02.937Z,3.00
2019-03-10T06:26:03.785Z,2.77
2019-03-10T06:28:04.620Z,4.20
2019-03-10T06:30:05.464Z,3.43
2019-03-10T06:32:06.373Z,3.70
2019-03-10T06:34:07.218Z,2.77
2019-03-10T06:36:08.049Z,2.33
2019-03-10T06:38:08.876Z,2.67
2019-03-10T06:40:09.726Z,4.23
2019-03-10T06:42:10.549Z,2.23
2019-03-10T06:44:11.409Z,2.00
2019-03-10T06:46:12.428Z,2.10
2019-03-10T06:48:13.285Z,2.20
2019-03-10T06:50:14.133Z,2.90
2019-03-10T06:52:14.960Z,2.13
2019-03-10T06:54:15.816Z,4.60
2019-03-10T06:56:16.655Z,3.97
2019-03-10T06:58:17.508Z,4.90
2019-03-10T07:00:18.345Z,5.23
2019-03-10T07:02:19.389Z,3.50
2019-03-10T07:04:20.256Z,5.73
2019-03-10T07:06:21.089Z,4.30
2019-03-10T07:08:21.946Z,5.67
2019-03-10T07:10:22.792Z,4.13
2019-03-10T07:12:23.633Z,4.00
2019-03-10T07:14:24.476Z,3.93
2019-03-10T07:16:25.311Z,5.63
2019-03-10T07:18:26.440Z,4.03
2019-03-10T07:20:27.296Z,4.33
2019-03-10T07:22:28.126Z,2.73
2019-03-10T07:24:28.964Z,2.80
2019-03-10T07:26:29.795Z,2.60
2019-03-10T07:28:33.516Z,3.47
2019-03-10T07:30:41.829Z,3.30
2019-03-10T07:32:48.692Z,3.80
2019-03-10T07:35:05.316Z,5.20
2019-03-10T07:37:21.590Z,6.53
2019-03-10T07:39:40.949Z,4.43
2019-03-10T07:42:00.981Z,5.13
2019-03-10T07:44:06.972Z,5.67
2019-03-10T07:46:22.946Z,5.20
2019-03-10T07:48:43.448Z,4.87
2019-03-10T07:51:02.830Z,3.77
2019-03-10T07:53:12.696Z,5.23
2019-03-10T07:55:31.797Z,2.90
2019-03-10T07:57:52.283Z,2.20
2019-03-10T08:00:13.680Z,2.73
2019-03-10T08:02:21.365Z,2.70
2019-03-10T08:04:32.040Z,2.20
2019-03-10T08:06:55.417Z,2.50
2019-03-10T08:09:25.061Z,1.97
2019-03-10T08:11:44.312Z,2.30
2019-03-10T08:14:04.800Z,2.10
2019-03-10T08:16:31.393Z,2.47
2019-03-10T08:18:37.757Z,2.90
2019-03-10T08:20:52.632Z,3.70
2019-03-10T08:23:13.109Z,2.17
2019-03-10T08:25:31.468Z,2.80
2019-03-10T08:27:44.881Z,2.17
2019-03-10T08:30:08.467Z,2.40
2019-03-10T08:32:44.048Z,2.47
2019-03-10T08:35:05.717Z,2.30
2019-03-10T08:37:26.537Z,2.57
2019-03-10T08:39:43.424Z,2.23
2019-03-10T08:42:06.983Z,3.00
2019-03-10T08:44:22.098Z,2.40
2019-03-10T08:46:51.874Z,2.30
2019-03-10T08:49:05.834Z,2.23
2019-03-10T08:51:29.341Z,2.20
2019-03-10T08:53:49.833Z,2.30
2019-03-10T08:56:10.345Z,2.67
2019-03-10T08:58:18.187Z,2.90
2019-03-10T09:00:29.349Z,2.97
2019-03-10T09:02:52.744Z,3.60
2019-03-10T09:05:13.224Z,2.30
2019-03-10T09:07:35.235Z,2.60
2019-03-10T09:10:14.148Z,2.13
2019-03-10T09:12:24.119Z,2.10
2019-03-10T09:14:43.533Z,2.40
2019-03-10T09:17:10.026Z,2.00
2019-03-10T09:19:16.289Z,2.43
2019-03-10T09:21:36.856Z,2.03
2019-03-10T09:24:07.618Z,2.97
2019-03-10T09:26:15.490Z,2.00
2019-03-10T09:28:34.804Z,1.67
2019-03-10T09:30:46.748Z,1.67
2019-03-10T09:33:07.976Z,2.57
2019-03-10T09:35:22.230Z,1.53
2019-03-10T09:37:28.573Z,1.60
2019-03-10T09:39:48.284Z,1.80
2019-03-10T09:42:01.388Z,1.67
2019-03-10T09:44:16.946Z,2.40
2019-03-10T09:46:23.431Z,1.50
2019-03-10T09:48:36.428Z,1.53
2019-03-10T09:51:06.175Z,1.37
2019-03-10T09:53:32.909Z,1.47
2019-03-10T09:55:52.229Z,1.40
2019-03-10T09:57:58.936Z,1.30
2019-03-10T10:00:08.378Z,1.70
2019-03-10T10:02:16.552Z,1.17
2019-03-10T10:04:37.056Z,1.40
2019-03-10T10:06:57.560Z,1.30
2019-03-10T10:09:14.972Z,3.80
2019-03-10T10:11:47.549Z,2.00
2019-03-10T10:13:57.802Z,1.50
2019-03-10T10:16:24.152Z,2.03
2019-03-10T10:18:53.516Z,1.50
2019-03-10T10:21:32.360Z,1.40
2019-03-10T10:23:42.735Z,2.63
2019-03-10T10:26:05.768Z,1.37
2019-03-10T10:28:12.460Z,1.30
2019-03-10T10:30:38.952Z,1.80
2019-03-10T10:32:47.499Z,2.00
2019-03-10T10:35:14.449Z,1.23
2019-03-10T10:37:47.082Z,1.20
2019-03-10T10:40:06.281Z,1.10
2019-03-10T10:42:16.428Z,1.50
2019-03-10T10:44:35.227Z,1.20
2019-03-10T10:46:55.718Z,1.47
2019-03-10T10:49:10.887Z,2.40
2019-03-10T10:51:29.855Z,2.40
2019-03-10T10:53:59.696Z,3.70
2019-03-10T10:56:26.185Z,2.33
2019-03-10T10:58:43.164Z,2.60
2019-03-10T11:01:03.042Z,2.10
2019-03-10T11:03:29.503Z,1.70
2019-03-10T11:05:47.320Z,2.17
2019-03-10T11:07:53.078Z,1.80
2019-03-10T11:10:05.391Z,1.90
2019-03-10T11:12:41.265Z,2.62
2019-03-10T11:14:49.645Z,1.20
2019-03-10T11:16:58.261Z,1.23
2019-03-10T11:19:06.748Z,2.00
2019-03-10T11:21:23.172Z,1.80
2019-03-10T11:23:46.606Z,2.07
2019-03-10T11:26:08.543Z,1.63
2019-03-10T11:28:32.068Z,3.00
2019-03-10T11:30:40.544Z,1.70
2019-03-10T11:32:59.956Z,1.90
2019-03-10T11:35:07.091Z,1.30
2019-03-10T11:37:22.996Z,2.00
2019-03-10T11:39:34.048Z,1.90
2019-03-10T11:41:55.552Z,2.00
2019-03-10T11:44:19.009Z,1.60
2019-03-10T11:46:45.676Z,1.60
2019-03-10T11:49:11.960Z,1.40
2019-03-10T11:51:22.756Z,2.43
2019-03-10T11:53:37.220Z,1.40
2019-03-10T11:56:04.028Z,2.00
2019-03-10T11:58:23.172Z,2.70
2019-03-10T12:00:52.783Z,1.90
2019-03-10T12:03:03.067Z,1.20
2019-03-10T12:05:23.569Z,1.43
2019-03-10T12:07:44.046Z,1.50
2019-03-10T12:09:44.887Z,1.10
2019-03-10T12:11:46.068Z,1.20
2019-03-10T12:13:46.932Z,1.00
2019-03-10T12:15:47.777Z,1.67
2019-03-10T12:17:48.627Z,1.30
2019-03-10T12:19:49.471Z,1.00
2019-03-10T12:21:50.298Z,1.10
2019-03-10T12:23:51.168Z,1.10
2019-03-10T12:25:52.024Z,1.07
2019-03-10T12:27:53.140Z,1.10
2019-03-10T12:29:54.345Z,1.17
2019-03-10T12:31:55.259Z,1.00
2019-03-10T12:33:56.195Z,0.90
2019-03-10T12:35:57.294Z,1.57
2019-03-10T12:37:58.120Z,1.80
2019-03-10T12:39:59.284Z,1.10
2019-03-10T12:42:00.127Z,2.23
2019-03-10T12:44:00.964Z,1.43
2019-03-10T12:46:01.818Z,1.30
2019-03-10T12:48:02.678Z,0.80
2019-03-10T12:50:03.509Z,1.63
2019-03-10T12:52:04.360Z,1.03
2019-03-10T12:54:05.528Z,0.80
2019-03-10T12:56:06.364Z,1.10
2019-03-10T12:58:07.241Z,1.00
2019-03-10T13:00:08.172Z,1.10
2019-03-10T13:02:09.008Z,1.43
2019-03-10T13:04:09.865Z,1.77
2019-03-10T13:06:10.737Z,1.60
2019-03-10T13:08:11.688Z,1.60
2019-03-10T13:10:12.902Z,0.80
2019-03-10T13:12:13.893Z,1.03
2019-03-10T13:14:14.791Z,1.30
2019-03-10T13:16:15.629Z,1.10
2019-03-10T13:18:16.499Z,0.77
2019-03-10T13:20:27.544Z,0.73
2019-03-10T13:22:20.133Z,0.90
2019-03-10T13:24:21.120Z,0.70
2019-03-10T13:26:21.970Z,2.27
2019-03-10T13:28:22.821Z,1.00
2019-03-10T13:30:23.657Z,0.80
2019-03-10T13:32:24.829Z,1.07
2019-03-10T13:34:25.689Z,1.00
2019-03-10T13:36:26.583Z,0.93
2019-03-10T13:38:27.440Z,1.43
2019-03-10T13:40:28.580Z,1.00
2019-03-10T13:42:29.441Z,1.37
2019-03-10T13:44:30.281Z,1.57
2019-03-10T13:46:31.152Z,2.20
2019-03-10T13:48:31.980Z,1.10
2019-03-10T13:50:32.872Z,1.33
2019-03-10T13:52:33.725Z,1.23
2019-03-10T13:54:34.579Z,2.13
2019-03-10T13:56:35.414Z,1.30
2019-03-10T13:58:36.608Z,1.93
2019-03-10T14:00:37.555Z,1.40
2019-03-10T14:02:38.674Z,2.13
2019-03-10T14:04:39.741Z,1.63
2019-03-10T14:06:40.602Z,1.93
2019-03-10T14:08:41.463Z,2.10
2019-03-10T14:10:42.300Z,1.13
2019-03-10T14:12:43.138Z,1.10
2019-03-10T14:14:43.981Z,2.33
2019-03-10T14:16:44.817Z,1.43
2019-03-10T14:18:45.648Z,2.33
2019-03-10T14:20:46.792Z,1.83
2019-03-10T14:22:47.641Z,1.57
2019-03-10T14:24:48.464Z,3.10
2019-03-10T14:26:49.338Z,3.23
2019-03-10T14:28:50.518Z,5.30
2019-03-10T14:30:51.357Z,2.03
2019-03-10T14:32:52.208Z,2.57
2019-03-10T14:34:53.041Z,3.30
2019-03-10T14:36:53.893Z,3.33
2019-03-10T14:38:54.801Z,2.67
2019-03-10T14:40:55.636Z,3.47
2019-03-10T14:42:56.504Z,2.20
2019-03-10T14:44:57.340Z,2.23
2019-03-10T14:46:58.526Z,3.17
2019-03-10T14:48:59.376Z,3.00
2019-03-10T14:51:00.233Z,3.67
2019-03-10T14:53:01.096Z,2.87
2019-03-10T14:55:01.965Z,2.63
2019-03-10T14:57:02.928Z,2.43
2019-03-10T14:59:03.979Z,2.70
2019-03-10T15:01:04.876Z,3.50
2019-03-10T15:03:05.730Z,3.83
2019-03-10T15:05:07.050Z,2.90
2019-03-10T15:07:07.901Z,3.73
2019-03-10T15:09:08.745Z,2.67
2019-03-10T15:11:09.692Z,2.07
2019-03-10T15:13:11.358Z,2.47
2019-03-10T15:15:21.823Z,3.70
2019-03-10T15:17:15.492Z,1.73
2019-03-10T15:19:16.352Z,1.97
2019-03-10T15:21:17.198Z,3.63
2019-03-10T15:23:18.024Z,3.20
2019-03-10T15:25:18.881Z,4.77
2019-03-10T15:27:23.558Z,5.40
2019-03-10T15:29:22.714Z,3.33
2019-03-10T15:31:23.565Z,4.30
2019-03-10T15:33:24.736Z,3.67
2019-03-10T15:35:25.570Z,5.20
2019-03-10T15:37:26.444Z,5.13
2019-03-10T15:39:27.500Z,2.00
2019-03-10T15:41:28.420Z,2.43
2019-03-10T15:43:29.273Z,3.97
2019-03-10T15:45:30.101Z,3.03
2019-03-10T15:47:30.952Z,3.93
2019-03-10T15:49:31.808Z,3.30
2019-03-10T15:51:32.652Z,5.47
2019-03-10T15:53:33.518Z,7.20
2019-03-10T15:55:34.360Z,5.47
2019-03-10T15:57:35.195Z,4.17
2019-03-10T15:59:36.029Z,5.37
2019-03-10T16:01:37.309Z,5.33
2019-03-10T16:03:38.179Z,6.27
2019-03-10T16:05:39.009Z,8.23
2019-03-10T16:07:39.855Z,5.00
2019-03-10T16:09:40.684Z,5.77
2019-03-10T16:11:41.548Z,6.80
2019-03-10T16:13:42.433Z,7.27
2019-03-10T16:15:43.387Z,4.80
2019-03-10T16:17:45.947Z,6.73
2019-03-10T16:19:46.989Z,5.80
2019-03-10T16:21:47.832Z,5.27
2019-03-10T16:23:48.685Z,4.37
2019-03-10T16:25:49.513Z,5.87
2019-03-10T16:27:50.340Z,5.97
2019-03-10T16:29:51.184Z,4.43
2019-03-10T16:31:52.106Z,6.23
2019-03-10T16:33:52.973Z,4.77
2019-03-10T16:35:53.800Z,4.13
2019-03-10T16:37:54.632Z,7.83
2019-03-10T16:39:55.833Z,7.50
2019-03-10T16:41:56.957Z,6.47
2019-03-10T16:43:58.105Z,7.20
2019-03-10T16:45:58.969Z,5.20
2019-03-10T16:47:59.813Z,6.47
2019-03-10T16:50:00.666Z,6.27
2019-03-10T16:52:01.581Z,7.57
2019-03-10T16:54:02.412Z,6.27
2019-03-10T16:56:03.474Z,6.17
2019-03-10T16:58:04.491Z,6.70
2019-03-10T17:00:05.444Z,6.83
2019-03-10T17:02:06.333Z,6.37
2019-03-10T17:04:07.291Z,7.63
2019-03-10T17:06:08.180Z,9.07
2019-03-10T17:08:09.012Z,6.90
2019-03-10T17:10:09.859Z,4.57
2019-03-10T17:12:10.755Z,7.30
2019-03-10T17:14:11.688Z,7.15
2019-03-10T17:16:12.521Z,5.03
2019-03-10T17:18:13.704Z,6.93
2019-03-10T17:20:14.552Z,7.37
2019-03-10T17:22:15.697Z,7.47
2019-03-10T17:24:16.541Z,9.37
2019-03-10T17:26:17.376Z,5.00
2019-03-10T17:28:18.234Z,5.97
2019-03-10T17:30:19.067Z,9.00
2019-03-10T17:32:19.909Z,5.87
2019-03-10T17:34:20.760Z,5.37
2019-03-10T17:36:21.596Z,5.40
2019-03-10T17:38:22.455Z,6.40
2019-03-10T17:40:23.288Z,6.83
2019-03-10T17:42:24.126Z,4.03
2019-03-10T17:44:25.118Z,6.73
2019-03-10T17:46:25.960Z,5.47
2019-03-10T17:48:26.792Z,5.23
2019-03-10T17:50:27.676Z,5.60
2019-03-10T17:52:29.514Z,5.87
2019-03-10T17:54:30.393Z,6.53
2019-03-10T17:56:31.288Z,4.87
2019-03-10T17:58:33.953Z,6.73
2019-03-10T18:00:35.188Z,5.30
2019-03-10T18:02:36.032Z,5.13
2019-03-10T18:04:37.190Z,5.73
2019-03-10T18:06:38.029Z,5.30
2019-03-10T18:08:38.862Z,5.47
2019-03-10T18:10:39.979Z,7.67
2019-03-10T18:12:40.836Z,4.40
2019-03-10T18:14:41.683Z,4.77
2019-03-10T18:16:42.533Z,4.80
2019-03-10T18:18:43.697Z,4.33
2019-03-10T18:20:44.552Z,4.33
2019-03-10T18:22:45.378Z,6.30
2019-03-10T18:24:46.528Z,7.03
2019-03-10T18:26:47.376Z,5.83
2019-03-10T18:28:48.212Z,6.30
2019-03-10T18:30:49.062Z,4.73
2019-03-10T18:32:49.904Z,3.93
2019-03-10T18:34:50.744Z,5.20
2019-03-10T18:36:51.808Z,6.87
2019-03-10T18:38:52.709Z,5.87
2019-03-10T18:40:53.912Z,7.00
2019-03-10T18:42:54.788Z,4.93
2019-03-10T18:44:55.961Z,5.30
2019-03-10T18:46:56.956Z,6.07
2019-03-10T18:48:58.025Z,5.90
2019-03-10T18:50:58.999Z,7.83
2019-03-10T18:52:59.812Z,9.60
2019-03-10T18:55:00.684Z,7.30
2019-03-10T18:57:01.528Z,6.17
2019-03-10T18:59:02.361Z,6.53
2019-03-10T19:01:03.216Z,5.63
2019-03-10T19:03:04.073Z,5.67
2019-03-10T19:05:04.901Z,5.43
2019-03-10T19:07:05.733Z,4.50
2019-03-10T19:09:06.591Z,4.97
2019-03-10T19:11:07.427Z,2.13
2019-03-10T19:13:08.292Z,5.23
2019-03-10T19:15:09.129Z,5.70
2019-03-10T19:17:09.976Z,5.93
2019-03-10T19:19:10.805Z,6.13
2019-03-10T19:21:12.022Z,4.47
2019-03-10T19:23:13.066Z,5.03
2019-03-10T19:25:14.160Z,4.70
2019-03-10T19:27:15.010Z,6.40
2019-03-10T19:29:15.885Z,5.13
2019-03-10T19:31:16.720Z,5.17
2019-03-10T19:33:17.687Z,3.93
2019-03-10T19:35:18.580Z,4.17
2019-03-10T19:37:19.489Z,3.70
2019-03-10T19:39:20.335Z,4.57
2019-03-10T19:41:21.176Z,4.37
2019-03-10T19:43:22.009Z,4.03
2019-03-10T19:45:22.840Z,4.57
2019-03-10T19:47:23.946Z,4.87
2019-03-10T19:49:25.106Z,6.00
2019-03-10T19:51:25.969Z,4.20
2019-03-10T19:53:26.821Z,3.90
2019-03-10T19:55:27.666Z,4.73
2019-03-10T19:57:28.505Z,5.40
2019-03-10T19:59:29.393Z,3.27
2019-03-10T20:01:30.493Z,5.53
2019-03-10T20:03:31.330Z,6.67
2019-03-10T20:05:32.176Z,4.47
2019-03-10T20:07:33.292Z,2.83
2019-03-10T20:09:34.378Z,4.83
2019-03-10T20:11:35.480Z,3.00
2019-03-10T20:13:36.338Z,5.80
2019-03-10T20:15:37.168Z,5.23
2019-03-10T20:17:38.002Z,3.50
2019-03-10T20:19:38.853Z,5.10
2019-03-10T20:21:39.720Z,4.30
2019-03-10T20:23:40.905Z,6.07
2019-03-10T20:25:41.847Z,9.13
2019-03-10T20:27:42.749Z,5.80
2019-03-10T20:29:43.633Z,5.17
2019-03-10T20:31:44.476Z,5.13
2019-03-10T20:33:45.577Z,4.83
2019-03-10T20:35:46.437Z,4.17
2019-03-10T20:37:47.353Z,5.33
2019-03-10T20:39:48.658Z,4.93
2019-03-10T20:41:49.527Z,6.57
2019-03-10T20:43:50.428Z,5.50
2019-03-10T20:45:51.283Z,8.70
2019-03-10T20:47:52.116Z,5.30
2019-03-10T20:49:52.949Z,5.77
2019-03-10T20:51:53.796Z,5.73
2019-03-10T20:53:54.617Z,5.60
2019-03-10T20:55:55.484Z,6.67
2019-03-10T20:57:56.352Z,6.83
2019-03-10T21:00:00.727Z,9.10
2019-03-10T21:02:00.233Z,6.00
2019-03-10T21:04:01.941Z,5.63
2019-03-10T21:06:02.783Z,8.20
2019-03-10T21:08:03.665Z,7.43
2019-03-10T21:10:04.513Z,6.07
2019-03-10T21:12:05.953Z,5.67
2019-03-10T21:14:06.898Z,6.03
2019-03-10T21:16:07.825Z,7.30
2019-03-10T21:18:08.689Z,6.37
2019-03-10T21:20:09.629Z,6.60
2019-03-10T21:22:10.495Z,5.30
2019-03-10T21:24:11.364Z,4.10
2019-03-10T21:26:12.210Z,7.17
2019-03-10T21:28:13.336Z,6.30
2019-03-10T21:30:14.194Z,4.03
2019-03-10T21:32:15.076Z,5.40
2019-03-10T21:34:15.936Z,8.67
2019-03-10T21:36:16.771Z,5.40
2019-03-10T21:38:17.614Z,6.73
2019-03-10T21:40:18.704Z,9.47
2019-03-10T21:42:19.553Z,8.03
2019-03-10T21:44:26.436Z,6.20
2019-03-10T21:46:23.127Z,5.63
2019-03-10T21:48:23.994Z,7.40
2019-03-10T21:50:24.845Z,8.43
2019-03-10T21:52:25.702Z,6.43
2019-03-10T21:54:26.863Z,7.00
2019-03-10T21:56:27.723Z,6.40
2019-03-10T21:58:28.552Z,6.80
2019-03-10T22:00:29.384Z,4.83
2019-03-10T22:02:30.232Z,6.73
2019-03-10T22:04:31.060Z,6.67
2019-03-10T22:06:31.884Z,8.73
2019-03-10T22:08:32.964Z,9.40
2019-03-10T22:10:33.800Z,6.17
2019-03-10T22:12:34.628Z,5.87
2019-03-10T22:14:35.491Z,7.60
2019-03-10T22:16:36.338Z,7.47
2019-03-10T22:18:37.185Z,7.37
2019-03-10T22:20:38.148Z,5.03
2019-03-10T22:22:48.280Z,5.90
2019-03-10T22:24:41.736Z,9.07
2019-03-10T22:26:42.592Z,8.83
2019-03-10T22:28:43.479Z,6.53
2019-03-10T22:30:44.369Z,5.77
2019-03-10T22:32:45.477Z,7.23
2019-03-10T22:34:46.342Z,5.57
2019-03-10T22:36:47.454Z,6.37
2019-03-10T22:38:48.297Z,6.53
2019-03-10T22:40:49.132Z,7.47
2019-03-10T22:42:50.241Z,9.27
2019-03-10T22:44:51.114Z,7.83
2019-03-10T22:46:51.950Z,6.47
2019-03-10T22:48:52.783Z,6.97
2019-03-10T22:50:53.637Z,8.93
2019-03-10T22:52:54.472Z,7.37
2019-03-10T22:54:55.665Z,6.67
2019-03-10T22:56:56.785Z,8.57
2019-03-10T22:58:57.672Z,4.27
2019-03-10T23:00:58.708Z,5.07
2019-03-10T23:02:59.565Z,8.83
2019-03-10T23:05:00.412Z,5.43
2019-03-10T23:07:01.244Z,9.83
2019-03-10T23:09:02.063Z,8.23
2019-03-10T23:11:03.256Z,9.37
2019-03-10T23:13:04.396Z,7.90
2019-03-10T23:15:05.225Z,9.30
2019-03-10T23:17:06.080Z,6.87
2019-03-10T23:19:06.939Z,8.53
2019-03-10T23:21:08.052Z,5.90
2019-03-10T23:23:08.997Z,8.30
2019-03-10T23:25:09.843Z,9.53
2019-03-10T23:27:10.957Z,7.93
2019-03-10T23:29:11.817Z,8.37
2019-03-10T23:31:12.679Z,6.33
2019-03-10T23:33:13.510Z,7.57
2019-03-10T23:35:14.352Z,10.20
2019-03-10T23:37:15.221Z,6.47
2019-03-10T23:39:16.320Z,6.57
2019-03-10T23:41:17.154Z,7.97
2019-03-10T23:43:18.001Z,10.13
2019-03-10T23:45:18.835Z,5.97
2019-03-10T23:47:19.696Z,8.03
2019-03-10T23:49:20.588Z,9.87
2019-03-10T23:51:21.433Z,10.20
2019-03-10T23:53:22.260Z,8.87
2019-03-10T23:55:23.117Z,9.63
2019-03-10T23:57:23.948Z,7.37
2019-03-10T23:59:24.777Z,14.23
